sensor_id;sensor_type;location;lat;lon;timestamp;P1;durP1;ratioP1;P2;durP2;ratioP2
20972;SDS011;10645;52.370;13.314;2023-05-29T00:00:20;3.78;;;2.53;;
20972;SDS011;10645;52.370;13.314;2023-05-29T00:02:47;0.88;;;0.80;;
20972;SDS011;10645;52.370;13.314;2023-05-29T00:05:14;4.20;;;3.13;;
20972;SDS011;10645;52.370;13.314;2023-05-29T00:07:41;1.35;;;1.27;;
20972;SDS011;10645;52.370;13.314;2023-05-29T00:10:07;2.17;;;1.05;;
20972;SDS011;10645;52.370;13.314;2023-05-29T00:12:34;5.10;;;2.90;;
20972;SDS011;10645;52.370;13.314;2023-05-29T00:15:01;3.60;;;1.92;;
20972;SDS011;10645;52.370;13.314;2023-05-29T00:17:29;6.63;;;2.08;;
20972;SDS011;10645;52.370;13.314;2023-05-29T00:20:01;8.20;;;1.42;;
20972;SDS011;10645;52.370;13.314;2023-05-29T00:22:37;2.25;;;2.10;;
20972;SDS011;10645;52.370;13.314;2023-05-29T00:25:04;2.25;;;2.03;;
20972;SDS011;10645;52.370;13.314;2023-05-29T00:27:31;2.67;;;2.30;;
20972;SDS011;10645;52.370;13.314;2023-05-29T00:29:58;2.78;;;2.55;;
20972;SDS011;10645;52.370;13.314;2023-05-29T00:32:25;4.03;;;1.80;;
20972;SDS011;10645;52.370;13.314;2023-05-29T00:34:53;1.30;;;0.93;;
20972;SDS011;10645;52.370;13.314;2023-05-29T00:37:20;2.35;;;1.55;;
20972;SDS011;10645;52.370;13.314;2023-05-29T00:39:47;1.88;;;1.10;;
20972;SDS011;10645;52.370;13.314;2023-05-29T00:42:14;1.88;;;1.77;;
20972;SDS011;10645;52.370;13.314;2023-05-29T00:44:40;1.55;;;1.45;;
20972;SDS011;10645;52.370;13.314;2023-05-29T00:47:06;1.42;;;1.33;;
20972;SDS011;10645;52.370;13.314;2023-05-29T00:49:33;1.25;;;0.88;;
20972;SDS011;10645;52.370;13.314;2023-05-29T00:52:01;1.05;;;1.05;;
20972;SDS011;10645;52.370;13.314;2023-05-29T00:54:32;10.40;;;2.40;;
20972;SDS011;10645;52.370;13.314;2023-05-29T00:56:59;9.82;;;1.95;;
20972;SDS011;10645;52.370;13.314;2023-05-29T00:59:27;1.08;;;1.05;;
20972;SDS011;10645;52.370;13.314;2023-05-29T01:01:57;5.85;;;1.95;;
20972;SDS011;10645;52.370;13.314;2023-05-29T01:04:25;2.38;;;2.17;;
20972;SDS011;10645;52.370;13.314;2023-05-29T01:06:52;3.15;;;2.00;;
20972;SDS011;10645;52.370;13.314;2023-05-29T01:09:18;3.25;;;1.13;;
20972;SDS011;10645;52.370;13.314;2023-05-29T01:11:45;2.67;;;2.10;;
20972;SDS011;10645;52.370;13.314;2023-05-29T01:14:45;0.98;;;0.95;;
20972;SDS011;10645;52.370;13.314;2023-05-29T01:23:48;2.90;;;1.98;;
20972;SDS011;10645;52.370;13.314;2023-05-29T01:26:40;0.85;;;0.85;;
20972;SDS011;10645;52.370;13.314;2023-05-29T01:29:18;1.48;;;1.05;;
20972;SDS011;10645;52.370;13.314;2023-05-29T01:31:49;1.42;;;1.23;;
20972;SDS011;10645;52.370;13.314;2023-05-29T01:34:16;1.35;;;1.25;;
20972;SDS011;10645;52.370;13.314;2023-05-29T01:36:43;1.77;;;1.40;;
20972;SDS011;10645;52.370;13.314;2023-05-29T01:39:09;1.45;;;1.38;;
20972;SDS011;10645;52.370;13.314;2023-05-29T01:41:35;2.58;;;1.48;;
20972;SDS011;10645;52.370;13.314;2023-05-29T01:44:06;9.10;;;1.75;;
20972;SDS011;10645;52.370;13.314;2023-05-29T01:46:35;1.30;;;1.02;;
20972;SDS011;10645;52.370;13.314;2023-05-29T01:49:02;1.27;;;0.77;;
20972;SDS011;10645;52.370;13.314;2023-05-29T01:51:30;2.15;;;1.95;;
20972;SDS011;10645;52.370;13.314;2023-05-29T01:53:57;1.08;;;0.93;;
20972;SDS011;10645;52.370;13.314;2023-05-29T01:56:25;2.15;;;1.25;;
20972;SDS011;10645;52.370;13.314;2023-05-29T01:58:53;6.38;;;2.17;;
20972;SDS011;10645;52.370;13.314;2023-05-29T02:01:21;4.88;;;2.03;;
20972;SDS011;10645;52.370;13.314;2023-05-29T02:03:47;2.13;;;1.35;;
20972;SDS011;10645;52.370;13.314;2023-05-29T02:06:14;2.05;;;0.80;;
20972;SDS011;10645;52.370;13.314;2023-05-29T02:08:40;1.10;;;0.93;;
20972;SDS011;10645;52.370;13.314;2023-05-29T02:11:06;0.85;;;0.85;;
20972;SDS011;10645;52.370;13.314;2023-05-29T02:13:32;1.60;;;0.93;;
20972;SDS011;10645;52.370;13.314;2023-05-29T02:15:59;2.55;;;1.67;;
20972;SDS011;10645;52.370;13.314;2023-05-29T02:18:25;3.42;;;1.55;;
20972;SDS011;10645;52.370;13.314;2023-05-29T02:20:51;0.88;;;0.85;;
20972;SDS011;10645;52.370;13.314;2023-05-29T02:23:21;2.17;;;1.73;;
20972;SDS011;10645;52.370;13.314;2023-05-29T02:25:47;0.90;;;0.82;;
20972;SDS011;10645;52.370;13.314;2023-05-29T02:28:13;3.30;;;1.83;;
20972;SDS011;10645;52.370;13.314;2023-05-29T02:30:39;0.95;;;0.35;;
20972;SDS011;10645;52.370;13.314;2023-05-29T02:33:08;4.15;;;0.77;;
20972;SDS011;10645;52.370;13.314;2023-05-29T02:35:34;2.25;;;0.70;;
20972;SDS011;10645;52.370;13.314;2023-05-29T02:38:00;1.45;;;1.35;;
20972;SDS011;10645;52.370;13.314;2023-05-29T02:40:26;2.08;;;1.92;;
20972;SDS011;10645;52.370;13.314;2023-05-29T02:42:53;1.02;;;0.98;;
20972;SDS011;10645;52.370;13.314;2023-05-29T02:45:19;1.63;;;1.33;;
20972;SDS011;10645;52.370;13.314;2023-05-29T02:47:45;2.13;;;2.00;;
20972;SDS011;10645;52.370;13.314;2023-05-29T02:50:11;0.70;;;0.70;;
20972;SDS011;10645;52.370;13.314;2023-05-29T02:52:40;0.82;;;0.73;;
20972;SDS011;10645;52.370;13.314;2023-05-29T02:55:06;10.05;;;1.80;;
20972;SDS011;10645;52.370;13.314;2023-05-29T02:57:32;1.98;;;1.40;;
20972;SDS011;10645;52.370;13.314;2023-05-29T02:59:59;1.95;;;1.85;;
20972;SDS011;10645;52.370;13.314;2023-05-29T03:02:26;2.58;;;1.40;;
20972;SDS011;10645;52.370;13.314;2023-05-29T03:04:52;2.20;;;1.17;;
20972;SDS011;10645;52.370;13.314;2023-05-29T03:07:19;1.80;;;1.67;;
20972;SDS011;10645;52.370;13.314;2023-05-29T03:09:45;1.42;;;1.33;;
20972;SDS011;10645;52.370;13.314;2023-05-29T03:12:11;2.13;;;1.85;;
20972;SDS011;10645;52.370;13.314;2023-05-29T03:14:38;1.80;;;1.35;;
20972;SDS011;10645;52.370;13.314;2023-05-29T03:17:09;1.27;;;0.98;;
20972;SDS011;10645;52.370;13.314;2023-05-29T03:19:35;4.32;;;1.42;;
20972;SDS011;10645;52.370;13.314;2023-05-29T03:22:01;1.90;;;1.80;;
20972;SDS011;10645;52.370;13.314;2023-05-29T03:24:29;1.75;;;1.65;;
20972;SDS011;10645;52.370;13.314;2023-05-29T03:26:55;1.73;;;1.63;;
20972;SDS011;10645;52.370;13.314;2023-05-29T03:29:22;1.85;;;1.10;;
20972;SDS011;10645;52.370;13.314;2023-05-29T03:31:50;1.05;;;1.00;;
20972;SDS011;10645;52.370;13.314;2023-05-29T03:34:23;0.95;;;0.88;;
20972;SDS011;10645;52.370;13.314;2023-05-29T03:36:55;1.42;;;1.33;;
20972;SDS011;10645;52.370;13.314;2023-05-29T03:39:23;3.92;;;1.08;;
20972;SDS011;10645;52.370;13.314;2023-05-29T03:41:49;2.40;;;2.00;;
20972;SDS011;10645;52.370;13.314;2023-05-29T03:44:16;0.98;;;0.60;;
20972;SDS011;10645;52.370;13.314;2023-05-29T03:46:43;0.85;;;0.57;;
20972;SDS011;10645;52.370;13.314;2023-05-29T03:49:09;1.90;;;1.75;;
20972;SDS011;10645;52.370;13.314;2023-05-29T03:51:36;0.68;;;0.68;;
20972;SDS011;10645;52.370;13.314;2023-05-29T03:54:03;1.73;;;1.02;;
20972;SDS011;10645;52.370;13.314;2023-05-29T03:56:29;1.70;;;0.77;;
20972;SDS011;10645;52.370;13.314;2023-05-29T03:58:55;1.83;;;1.63;;
20972;SDS011;10645;52.370;13.314;2023-05-29T04:01:21;0.40;;;0.40;;
20972;SDS011;10645;52.370;13.314;2023-05-29T04:03:48;1.52;;;1.45;;
20972;SDS011;10645;52.370;13.314;2023-05-29T04:06:15;2.17;;;1.00;;
20972;SDS011;10645;52.370;13.314;2023-05-29T04:08:41;1.30;;;0.75;;
20972;SDS011;10645;52.370;13.314;2023-05-29T04:11:08;2.17;;;1.85;;
20972;SDS011;10645;52.370;13.314;2023-05-29T04:13:34;1.02;;;1.02;;
20972;SDS011;10645;52.370;13.314;2023-05-29T04:16:00;3.25;;;1.63;;
20972;SDS011;10645;52.370;13.314;2023-05-29T04:18:26;0.63;;;0.47;;
20972;SDS011;10645;52.370;13.314;2023-05-29T04:20:52;1.10;;;1.02;;
20972;SDS011;10645;52.370;13.314;2023-05-29T04:23:19;1.77;;;1.35;;
20972;SDS011;10645;52.370;13.314;2023-05-29T04:25:46;0.50;;;0.50;;
20972;SDS011;10645;52.370;13.314;2023-05-29T04:28:16;1.67;;;1.58;;
20972;SDS011;10645;52.370;13.314;2023-05-29T04:30:42;2.38;;;2.25;;
20972;SDS011;10645;52.370;13.314;2023-05-29T04:33:08;4.05;;;1.45;;
20972;SDS011;10645;52.370;13.314;2023-05-29T04:35:42;1.35;;;1.25;;
20972;SDS011;10645;52.370;13.314;2023-05-29T04:38:09;3.00;;;1.02;;
20972;SDS011;10645;52.370;13.314;2023-05-29T04:40:35;2.00;;;1.25;;
20972;SDS011;10645;52.370;13.314;2023-05-29T04:43:06;1.70;;;1.38;;
20972;SDS011;10645;52.370;13.314;2023-05-29T04:45:47;1.63;;;1.42;;
20972;SDS011;10645;52.370;13.314;2023-05-29T04:48:14;2.08;;;1.70;;
20972;SDS011;10645;52.370;13.314;2023-05-29T04:50:40;1.48;;;1.38;;
20972;SDS011;10645;52.370;13.314;2023-05-29T04:53:06;1.55;;;0.82;;
20972;SDS011;10645;52.370;13.314;2023-05-29T04:55:32;1.02;;;1.02;;
20972;SDS011;10645;52.370;13.314;2023-05-29T04:57:59;2.65;;;2.45;;
20972;SDS011;10645;52.370;13.314;2023-05-29T05:00:26;1.40;;;1.30;;
20972;SDS011;10645;52.370;13.314;2023-05-29T05:02:52;1.95;;;1.30;;
20972;SDS011;10645;52.370;13.314;2023-05-29T05:05:18;4.10;;;3.05;;
20972;SDS011;10645;52.370;13.314;2023-05-29T05:07:45;2.47;;;2.28;;
20972;SDS011;10645;52.370;13.314;2023-05-29T05:10:12;4.13;;;1.52;;
20972;SDS011;10645;52.370;13.314;2023-05-29T05:12:38;1.65;;;1.55;;
20972;SDS011;10645;52.370;13.314;2023-05-29T05:15:04;2.25;;;1.67;;
20972;SDS011;10645;52.370;13.314;2023-05-29T05:17:32;2.83;;;1.00;;
20972;SDS011;10645;52.370;13.314;2023-05-29T05:19:59;0.95;;;0.95;;
20972;SDS011;10645;52.370;13.314;2023-05-29T05:22:26;2.35;;;1.20;;
20972;SDS011;10645;52.370;13.314;2023-05-29T05:24:52;2.63;;;1.50;;
20972;SDS011;10645;52.370;13.314;2023-05-29T05:27:19;1.67;;;1.58;;
20972;SDS011;10645;52.370;13.314;2023-05-29T05:29:46;1.90;;;0.95;;
20972;SDS011;10645;52.370;13.314;2023-05-29T05:32:12;1.48;;;0.88;;
20972;SDS011;10645;52.370;13.314;2023-05-29T05:34:38;1.88;;;1.45;;
20972;SDS011;10645;52.370;13.314;2023-05-29T05:37:06;1.85;;;1.75;;
20972;SDS011;10645;52.370;13.314;2023-05-29T05:39:33;1.45;;;1.27;;
20972;SDS011;10645;52.370;13.314;2023-05-29T05:41:59;3.05;;;1.58;;
20972;SDS011;10645;52.370;13.314;2023-05-29T05:44:46;0.55;;;0.55;;
20972;SDS011;10645;52.370;13.314;2023-05-29T05:47:13;0.88;;;0.88;;
20972;SDS011;10645;52.370;13.314;2023-05-29T05:49:39;1.58;;;1.23;;
20972;SDS011;10645;52.370;13.314;2023-05-29T05:52:06;1.33;;;1.10;;
20972;SDS011;10645;52.370;13.314;2023-05-29T05:54:32;1.30;;;1.30;;
20972;SDS011;10645;52.370;13.314;2023-05-29T05:56:59;0.98;;;0.88;;
20972;SDS011;10645;52.370;13.314;2023-05-29T05:59:26;2.20;;;1.05;;
20972;SDS011;10645;52.370;13.314;2023-05-29T06:01:52;0.52;;;0.52;;
20972;SDS011;10645;52.370;13.314;2023-05-29T06:04:19;2.50;;;0.75;;
20972;SDS011;10645;52.370;13.314;2023-05-29T06:06:45;0.47;;;0.47;;
20972;SDS011;10645;52.370;13.314;2023-05-29T06:09:11;1.33;;;1.20;;
20972;SDS011;10645;52.370;13.314;2023-05-29T06:11:37;2.47;;;1.45;;
20972;SDS011;10645;52.370;13.314;2023-05-29T06:14:04;1.00;;;0.90;;
20972;SDS011;10645;52.370;13.314;2023-05-29T06:16:30;1.08;;;0.88;;
20972;SDS011;10645;52.370;13.314;2023-05-29T06:18:56;1.27;;;1.17;;
20972;SDS011;10645;52.370;13.314;2023-05-29T06:21:23;2.22;;;1.50;;
20972;SDS011;10645;52.370;13.314;2023-05-29T06:23:54;1.17;;;1.08;;
20972;SDS011;10645;52.370;13.314;2023-05-29T06:26:20;6.10;;;1.05;;
20972;SDS011;10645;52.370;13.314;2023-05-29T06:28:48;1.27;;;1.17;;
20972;SDS011;10645;52.370;13.314;2023-05-29T06:31:15;1.60;;;0.80;;
20972;SDS011;10645;52.370;13.314;2023-05-29T06:33:41;3.70;;;0.98;;
20972;SDS011;10645;52.370;13.314;2023-05-29T06:36:07;0.85;;;0.85;;
20972;SDS011;10645;52.370;13.314;2023-05-29T06:38:34;0.55;;;0.55;;
20972;SDS011;10645;52.370;13.314;2023-05-29T06:41:00;0.30;;;0.30;;
20972;SDS011;10645;52.370;13.314;2023-05-29T06:43:27;2.05;;;1.05;;
20972;SDS011;10645;52.370;13.314;2023-05-29T06:45:56;0.70;;;0.70;;
20972;SDS011;10645;52.370;13.314;2023-05-29T06:48:22;2.65;;;1.42;;
20972;SDS011;10645;52.370;13.314;2023-05-29T06:50:49;1.25;;;0.98;;
20972;SDS011;10645;52.370;13.314;2023-05-29T06:53:38;0.82;;;0.73;;
20972;SDS011;10645;52.370;13.314;2023-05-29T06:56:06;0.38;;;0.38;;
20972;SDS011;10645;52.370;13.314;2023-05-29T06:58:33;1.55;;;1.45;;
20972;SDS011;10645;52.370;13.314;2023-05-29T07:01:00;1.10;;;1.10;;
20972;SDS011;10645;52.370;13.314;2023-05-29T07:03:30;2.47;;;1.38;;
20972;SDS011;10645;52.370;13.314;2023-05-29T07:05:56;0.68;;;0.68;;
20972;SDS011;10645;52.370;13.314;2023-05-29T07:08:23;2.60;;;1.58;;
20972;SDS011;10645;52.370;13.314;2023-05-29T07:10:51;1.10;;;0.95;;
20972;SDS011;10645;52.370;13.314;2023-05-29T07:13:19;1.13;;;1.00;;
20972;SDS011;10645;52.370;13.314;2023-05-29T07:15:45;6.28;;;0.95;;
20972;SDS011;10645;52.370;13.314;2023-05-29T07:18:12;0.57;;;0.57;;
20972;SDS011;10645;52.370;13.314;2023-05-29T07:20:39;1.50;;;0.80;;
20972;SDS011;10645;52.370;13.314;2023-05-29T07:23:06;2.17;;;1.02;;
20972;SDS011;10645;52.370;13.314;2023-05-29T07:25:32;0.75;;;0.75;;
20972;SDS011;10645;52.370;13.314;2023-05-29T07:27:58;0.63;;;0.63;;
20972;SDS011;10645;52.370;13.314;2023-05-29T07:30:24;0.98;;;0.80;;
20972;SDS011;10645;52.370;13.314;2023-05-29T07:32:52;0.55;;;0.52;;
20972;SDS011;10645;52.370;13.314;2023-05-29T07:35:18;1.15;;;1.08;;
20972;SDS011;10645;52.370;13.314;2023-05-29T07:37:44;1.58;;;0.95;;
20972;SDS011;10645;52.370;13.314;2023-05-29T07:40:14;1.35;;;1.13;;
20972;SDS011;10645;52.370;13.314;2023-05-29T07:43:07;2.33;;;0.80;;
20972;SDS011;10645;52.370;13.314;2023-05-29T07:45:45;1.17;;;0.95;;
20972;SDS011;10645;52.370;13.314;2023-05-29T07:48:11;1.60;;;1.13;;
20972;SDS011;10645;52.370;13.314;2023-05-29T07:50:37;1.13;;;0.80;;
20972;SDS011;10645;52.370;13.314;2023-05-29T07:53:04;1.58;;;0.95;;
20972;SDS011;10645;52.370;13.314;2023-05-29T07:55:34;1.20;;;0.50;;
20972;SDS011;10645;52.370;13.314;2023-05-29T07:58:01;1.58;;;1.35;;
20972;SDS011;10645;52.370;13.314;2023-05-29T08:00:27;1.38;;;1.05;;
20972;SDS011;10645;52.370;13.314;2023-05-29T08:02:54;0.50;;;0.50;;
20972;SDS011;10645;52.370;13.314;2023-05-29T08:05:29;0.63;;;0.52;;
20972;SDS011;10645;52.370;13.314;2023-05-29T08:07:57;0.85;;;0.80;;
20972;SDS011;10645;52.370;13.314;2023-05-29T08:10:25;1.52;;;1.02;;
20972;SDS011;10645;52.370;13.314;2023-05-29T08:12:51;2.53;;;1.35;;
20972;SDS011;10645;52.370;13.314;2023-05-29T08:15:18;1.20;;;1.10;;
20972;SDS011;10645;52.370;13.314;2023-05-29T08:17:44;1.58;;;0.85;;
20972;SDS011;10645;52.370;13.314;2023-05-29T08:20:10;1.27;;;1.17;;
20972;SDS011;10645;52.370;13.314;2023-05-29T08:22:37;0.82;;;0.77;;
20972;SDS011;10645;52.370;13.314;2023-05-29T08:25:03;0.98;;;0.93;;
20972;SDS011;10645;52.370;13.314;2023-05-29T08:27:29;1.08;;;0.77;;
20972;SDS011;10645;52.370;13.314;2023-05-29T08:29:56;1.00;;;0.88;;
20972;SDS011;10645;52.370;13.314;2023-05-29T08:32:22;1.23;;;0.75;;
20972;SDS011;10645;52.370;13.314;2023-05-29T08:34:48;2.83;;;0.60;;
20972;SDS011;10645;52.370;13.314;2023-05-29T08:37:15;2.47;;;1.00;;
20972;SDS011;10645;52.370;13.314;2023-05-29T08:39:41;0.50;;;0.50;;
20972;SDS011;10645;52.370;13.314;2023-05-29T08:42:10;0.70;;;0.70;;
20972;SDS011;10645;52.370;13.314;2023-05-29T08:44:40;1.35;;;1.25;;
20972;SDS011;10645;52.370;13.314;2023-05-29T08:47:07;1.85;;;1.17;;
20972;SDS011;10645;52.370;13.314;2023-05-29T08:49:35;1.58;;;1.48;;
20972;SDS011;10645;52.370;13.314;2023-05-29T08:52:15;0.65;;;0.65;;
20972;SDS011;10645;52.370;13.314;2023-05-29T08:54:44;0.57;;;0.47;;
20972;SDS011;10645;52.370;13.314;2023-05-29T08:57:10;1.33;;;1.10;;
20972;SDS011;10645;52.370;13.314;2023-05-29T08:59:39;2.03;;;0.85;;
20972;SDS011;10645;52.370;13.314;2023-05-29T09:02:07;0.68;;;0.68;;
20972;SDS011;10645;52.370;13.314;2023-05-29T09:04:33;0.95;;;0.85;;
20972;SDS011;10645;52.370;13.314;2023-05-29T09:06:59;0.93;;;0.80;;
20972;SDS011;10645;52.370;13.314;2023-05-29T09:09:26;1.10;;;1.05;;
20972;SDS011;10645;52.370;13.314;2023-05-29T09:11:55;1.10;;;1.00;;
20972;SDS011;10645;52.370;13.314;2023-05-29T09:14:31;2.92;;;1.02;;
20972;SDS011;10645;52.370;13.314;2023-05-29T09:16:59;1.52;;;1.42;;
20972;SDS011;10645;52.370;13.314;2023-05-29T09:19:25;1.40;;;0.98;;
20972;SDS011;10645;52.370;13.314;2023-05-29T09:21:51;8.05;;;5.68;;
20972;SDS011;10645;52.370;13.314;2023-05-29T09:24:25;5.13;;;4.63;;
20972;SDS011;10645;52.370;13.314;2023-05-29T09:26:53;1.23;;;1.13;;
20972;SDS011;10645;52.370;13.314;2023-05-29T09:29:19;0.95;;;0.95;;
20972;SDS011;10645;52.370;13.314;2023-05-29T09:31:46;1.52;;;1.42;;
20972;SDS011;10645;52.370;13.314;2023-05-29T09:34:12;1.27;;;1.17;;
20972;SDS011;10645;52.370;13.314;2023-05-29T09:36:39;2.50;;;1.63;;
20972;SDS011;10645;52.370;13.314;2023-05-29T09:39:05;6.80;;;1.35;;
20972;SDS011;10645;52.370;13.314;2023-05-29T09:41:47;1.80;;;1.70;;
20972;SDS011;10645;52.370;13.314;2023-05-29T09:44:14;1.83;;;1.67;;
20972;SDS011;10645;52.370;13.314;2023-05-29T09:46:41;1.35;;;1.00;;
20972;SDS011;10645;52.370;13.314;2023-05-29T09:49:14;0.75;;;0.75;;
20972;SDS011;10645;52.370;13.314;2023-05-29T09:51:42;1.38;;;1.27;;
20972;SDS011;10645;52.370;13.314;2023-05-29T09:54:16;1.15;;;1.08;;
20972;SDS011;10645;52.370;13.314;2023-05-29T09:56:43;2.10;;;1.38;;
20972;SDS011;10645;52.370;13.314;2023-05-29T09:59:10;3.67;;;1.15;;
20972;SDS011;10645;52.370;13.314;2023-05-29T10:01:41;1.92;;;1.58;;
20972;SDS011;10645;52.370;13.314;2023-05-29T10:04:10;0.80;;;0.80;;
20972;SDS011;10645;52.370;13.314;2023-05-29T10:06:39;0.70;;;0.52;;
20972;SDS011;10645;52.370;13.314;2023-05-29T10:09:09;0.52;;;0.52;;
20972;SDS011;10645;52.370;13.314;2023-05-29T10:11:37;2.00;;;0.85;;
20972;SDS011;10645;52.370;13.314;2023-05-29T10:14:05;1.70;;;1.60;;
20972;SDS011;10645;52.370;13.314;2023-05-29T10:16:31;0.75;;;0.75;;
20972;SDS011;10645;52.370;13.314;2023-05-29T10:19:02;2.75;;;1.10;;
20972;SDS011;10645;52.370;13.314;2023-05-29T10:21:33;4.65;;;0.90;;
20972;SDS011;10645;52.370;13.314;2023-05-29T10:24:03;1.52;;;1.42;;
20972;SDS011;10645;52.370;13.314;2023-05-29T10:26:34;1.40;;;1.30;;
20972;SDS011;10645;52.370;13.314;2023-05-29T10:34:36;3.55;;;1.48;;
20972;SDS011;10645;52.370;13.314;2023-05-29T10:37:20;1.33;;;1.23;;
20972;SDS011;10645;52.370;13.314;2023-05-29T10:39:53;1.95;;;1.67;;
20972;SDS011;10645;52.370;13.314;2023-05-29T10:45:11;1.65;;;1.52;;
20972;SDS011;10645;52.370;13.314;2023-05-29T10:50:35;1.58;;;0.95;;
20972;SDS011;10645;52.370;13.314;2023-05-29T10:53:07;0.77;;;0.70;;
20972;SDS011;10645;52.370;13.314;2023-05-29T10:55:39;2.22;;;2.03;;
20972;SDS011;10645;52.370;13.314;2023-05-29T10:58:12;2.38;;;1.55;;
20972;SDS011;10645;52.370;13.314;2023-05-29T11:00:40;1.02;;;0.90;;
20972;SDS011;10645;52.370;13.314;2023-05-29T11:03:08;2.38;;;1.95;;
20972;SDS011;10645;52.370;13.314;2023-05-29T11:05:56;1.95;;;1.10;;
20972;SDS011;10645;52.370;13.314;2023-05-29T11:08:34;1.05;;;0.95;;
20972;SDS011;10645;52.370;13.314;2023-05-29T11:11:03;2.50;;;2.08;;
20972;SDS011;10645;52.370;13.314;2023-05-29T11:13:35;1.50;;;1.40;;
20972;SDS011;10645;52.370;13.314;2023-05-29T11:19:07;1.05;;;1.05;;
20972;SDS011;10645;52.370;13.314;2023-05-29T11:24:14;1.73;;;1.20;;
20972;SDS011;10645;52.370;13.314;2023-05-29T11:26:50;1.85;;;1.27;;
20972;SDS011;10645;52.370;13.314;2023-05-29T11:29:18;5.97;;;2.28;;
20972;SDS011;10645;52.370;13.314;2023-05-29T11:34:35;1.10;;;1.10;;
20972;SDS011;10645;52.370;13.314;2023-05-29T11:37:05;1.25;;;1.10;;
20972;SDS011;10645;52.370;13.314;2023-05-29T11:39:35;1.67;;;1.20;;
20972;SDS011;10645;52.370;13.314;2023-05-29T11:42:02;2.65;;;1.50;;
20972;SDS011;10645;52.370;13.314;2023-05-29T11:44:29;3.95;;;0.98;;
20972;SDS011;10645;52.370;13.314;2023-05-29T11:47:05;1.90;;;1.13;;
20972;SDS011;10645;52.370;13.314;2023-05-29T11:49:33;1.52;;;1.35;;
20972;SDS011;10645;52.370;13.314;2023-05-29T11:52:10;1.30;;;1.20;;
20972;SDS011;10645;52.370;13.314;2023-05-29T11:54:37;1.20;;;1.10;;
20972;SDS011;10645;52.370;13.314;2023-05-29T11:57:03;1.25;;;1.15;;
20972;SDS011;10645;52.370;13.314;2023-05-29T11:59:32;4.60;;;2.80;;
20972;SDS011;10645;52.370;13.314;2023-05-29T12:01:59;4.55;;;4.18;;
20972;SDS011;10645;52.370;13.314;2023-05-29T12:04:28;8.05;;;5.28;;
20972;SDS011;10645;52.370;13.314;2023-05-29T12:06:54;32.05;;;25.15;;
20972;SDS011;10645;52.370;13.314;2023-05-29T12:09:24;42.70;;;27.83;;
20972;SDS011;10645;52.370;13.314;2023-05-29T12:11:50;12.77;;;11.57;;
20972;SDS011;10645;52.370;13.314;2023-05-29T12:14:17;13.70;;;12.30;;
20972;SDS011;10645;52.370;13.314;2023-05-29T12:16:43;6.88;;;6.28;;
20972;SDS011;10645;52.370;13.314;2023-05-29T12:19:09;1.77;;;1.30;;
20972;SDS011;10645;52.370;13.314;2023-05-29T12:21:35;0.95;;;0.50;;
20972;SDS011;10645;52.370;13.314;2023-05-29T12:24:06;1.00;;;0.88;;
20972;SDS011;10645;52.370;13.314;2023-05-29T12:26:33;1.77;;;1.45;;
20972;SDS011;10645;52.370;13.314;2023-05-29T12:29:01;0.85;;;0.85;;
20972;SDS011;10645;52.370;13.314;2023-05-29T12:31:29;0.93;;;0.85;;
20972;SDS011;10645;52.370;13.314;2023-05-29T12:34:00;1.77;;;0.98;;
20972;SDS011;10645;52.370;13.314;2023-05-29T12:36:46;1.67;;;1.05;;
20972;SDS011;10645;52.370;13.314;2023-05-29T12:39:12;1.40;;;1.02;;
20972;SDS011;10645;52.370;13.314;2023-05-29T12:41:38;1.42;;;1.33;;
20972;SDS011;10645;52.370;13.314;2023-05-29T12:44:05;0.82;;;0.70;;
20972;SDS011;10645;52.370;13.314;2023-05-29T12:46:36;0.75;;;0.55;;
20972;SDS011;10645;52.370;13.314;2023-05-29T12:49:15;1.58;;;1.15;;
20972;SDS011;10645;52.370;13.314;2023-05-29T12:51:43;1.13;;;1.05;;
20972;SDS011;10645;52.370;13.314;2023-05-29T12:54:10;2.67;;;2.45;;
20972;SDS011;10645;52.370;13.314;2023-05-29T12:56:38;1.13;;;1.00;;
20972;SDS011;10645;52.370;13.314;2023-05-29T12:59:07;1.73;;;1.63;;
20972;SDS011;10645;52.370;13.314;2023-05-29T13:01:34;1.58;;;1.35;;
20972;SDS011;10645;52.370;13.314;2023-05-29T13:04:04;1.15;;;1.05;;
20972;SDS011;10645;52.370;13.314;2023-05-29T13:06:35;2.53;;;1.40;;
20972;SDS011;10645;52.370;13.314;2023-05-29T13:09:02;8.02;;;0.70;;
20972;SDS011;10645;52.370;13.314;2023-05-29T13:11:28;2.58;;;1.60;;
20972;SDS011;10645;52.370;13.314;2023-05-29T13:13:54;2.80;;;1.95;;
20972;SDS011;10645;52.370;13.314;2023-05-29T13:16:21;0.68;;;0.68;;
20972;SDS011;10645;52.370;13.314;2023-05-29T13:18:47;11.18;;;1.98;;
20972;SDS011;10645;52.370;13.314;2023-05-29T13:21:13;0.70;;;0.70;;
20972;SDS011;10645;52.370;13.314;2023-05-29T13:23:39;2.03;;;1.15;;
20972;SDS011;10645;52.370;13.314;2023-05-29T13:26:05;2.78;;;1.95;;
20972;SDS011;10645;52.370;13.314;2023-05-29T13:28:32;1.40;;;1.30;;
20972;SDS011;10645;52.370;13.314;2023-05-29T13:30:59;3.15;;;0.98;;
20972;SDS011;10645;52.370;13.314;2023-05-29T13:33:25;1.13;;;0.95;;
20972;SDS011;10645;52.370;13.314;2023-05-29T13:35:51;1.38;;;1.27;;
20972;SDS011;10645;52.370;13.314;2023-05-29T13:38:17;1.30;;;1.15;;
20972;SDS011;10645;52.370;13.314;2023-05-29T13:40:43;1.02;;;0.88;;
20972;SDS011;10645;52.370;13.314;2023-05-29T13:43:09;1.63;;;1.40;;
20972;SDS011;10645;52.370;13.314;2023-05-29T13:45:35;2.75;;;1.42;;
20972;SDS011;10645;52.370;13.314;2023-05-29T13:48:02;1.83;;;1.15;;
20972;SDS011;10645;52.370;13.314;2023-05-29T13:50:28;0.77;;;0.77;;
20972;SDS011;10645;52.370;13.314;2023-05-29T13:52:54;1.35;;;1.25;;
20972;SDS011;10645;52.370;13.314;2023-05-29T13:55:20;2.28;;;1.33;;
20972;SDS011;10645;52.370;13.314;2023-05-29T13:57:46;1.95;;;1.08;;
20972;SDS011;10645;52.370;13.314;2023-05-29T14:00:12;0.90;;;0.75;;
20972;SDS011;10645;52.370;13.314;2023-05-29T14:02:39;0.95;;;0.95;;
20972;SDS011;10645;52.370;13.314;2023-05-29T14:05:05;5.68;;;0.93;;
20972;SDS011;10645;52.370;13.314;2023-05-29T14:07:31;1.70;;;1.42;;
20972;SDS011;10645;52.370;13.314;2023-05-29T14:09:57;1.48;;;1.38;;
20972;SDS011;10645;52.370;13.314;2023-05-29T14:12:23;1.08;;;0.43;;
20972;SDS011;10645;52.370;13.314;2023-05-29T14:14:50;2.30;;;1.50;;
20972;SDS011;10645;52.370;13.314;2023-05-29T14:17:16;2.08;;;1.27;;
20972;SDS011;10645;52.370;13.314;2023-05-29T14:19:42;1.30;;;0.80;;
20972;SDS011;10645;52.370;13.314;2023-05-29T14:22:11;1.38;;;1.27;;
20972;SDS011;10645;52.370;13.314;2023-05-29T14:24:37;0.80;;;0.60;;
20972;SDS011;10645;52.370;13.314;2023-05-29T14:27:03;2.10;;;1.27;;
20972;SDS011;10645;52.370;13.314;2023-05-29T14:29:31;0.90;;;0.82;;
20972;SDS011;10645;52.370;13.314;2023-05-29T14:31:57;0.85;;;0.80;;
20972;SDS011;10645;52.370;13.314;2023-05-29T14:34:23;2.03;;;1.20;;
20972;SDS011;10645;52.370;13.314;2023-05-29T14:36:49;1.25;;;0.82;;
20972;SDS011;10645;52.370;13.314;2023-05-29T14:39:15;0.57;;;0.57;;
20972;SDS011;10645;52.370;13.314;2023-05-29T14:41:41;1.95;;;1.15;;
20972;SDS011;10645;52.370;13.314;2023-05-29T14:44:07;1.23;;;0.95;;
20972;SDS011;10645;52.370;13.314;2023-05-29T14:46:34;1.98;;;1.40;;
20972;SDS011;10645;52.370;13.314;2023-05-29T14:49:00;1.77;;;1.13;;
20972;SDS011;10645;52.370;13.314;2023-05-29T14:51:27;4.25;;;0.77;;
20972;SDS011;10645;52.370;13.314;2023-05-29T14:53:53;1.60;;;1.17;;
20972;SDS011;10645;52.370;13.314;2023-05-29T14:56:20;1.45;;;1.35;;
20972;SDS011;10645;52.370;13.314;2023-05-29T14:58:46;1.08;;;0.98;;
20972;SDS011;10645;52.370;13.314;2023-05-29T15:01:14;0.52;;;0.52;;
20972;SDS011;10645;52.370;13.314;2023-05-29T15:03:41;3.72;;;0.93;;